Latest Weather Observations for Daly Waters

IDD60801

Issued at 1:05 pm CST Thursday 23 October 2014 (issued every 30 minutes, with the page automatically refreshed every 10 minutes)

About weather observations | Map of weather stations | Latest weather observations for NT | Other Formats
Station Details ID: 014626 Name: DALY WATERS AIRSTRIP Lat: -16.26 Lon: 133.38 Height: 209.84 m
Data from the previous 72 hours. | See also: Recent months at Daly Waters
Date/Time
CST
Temp
°C
App
Temp
°C
Dew
Point
Rel
Hum
%
Delta-T
°C
Wind Press
QNH
hPa
Press
MSL
hPa
Rain
since 9 am
mm
Dir
 
Spd
km/h
Gust
km/h
Spd
kts
Gust
kts
23/01:00pm 36.5 34.0 6.6 16 16.7 E 9 24 5 13 1012.8 1011.4 0.0
23/12:30pm 36.5 33.6 6.6 16 16.7 ESE 11 30 6 16 1013.4 1012.0 0.0
23/12:00pm 35.1 32.0 7.2 18 15.6 ENE 13 30 7 16 1014.1 1012.6 0.0
23/11:30am 35.1 31.6 7.2 18 15.6 E 15 26 8 14 1014.7 1013.2 0.0
23/11:00am 35.2 32.9 10.3 22 14.6 NNE 13 28 7 15 1015.3 1013.8 0.0
23/10:30am 33.7 31.9 10.9 25 13.4 NE 11 22 6 12 1015.8 1014.4 0.0
23/10:00am 32.1 29.5 10.8 27 12.4 NNE 15 26 8 14 1016.3 1014.9 0.0
23/09:30am 31.4 29.3 11.2 29 11.8 NNE 13 24 7 13 1016.5 1015.1 0.0
23/09:00am 29.1 27.7 12.1 35 10.0 N 11 20 6 11 1016.5 1015.1 0.0
23/08:30am 27.1 27.6 15.1 47 7.3 N 6 9 3 5 1016.6 1015.2 0.0
23/08:00am 25.8 27.2 16.4 56 5.8 NNE 4 7 2 4 1016.4 1015.0 0.0
23/07:30am 24.1 25.1 13.3 51 6.3 CALM 0 0 0 0 1016.3 1014.9 0.0
23/07:00am 19.3 19.6 10.8 58 4.7 CALM 0 0 0 0 1015.7 1014.2 0.0
23/06:30am 16.8 16.7 9.5 62 3.8 CALM 0 0 0 0 1015.3 1013.8 0.0
23/06:00am 16.4 16.2 9.1 62 3.8 S 0 0 0 0 1015.0 1013.5 0.0
23/05:30am 16.4 16.2 8.9 61 3.9 CALM 0 0 0 0 1014.8 1013.3 0.0
23/05:00am 16.7 16.5 8.9 60 4.1 CALM 0 0 0 0 1014.4 1012.9 0.0
23/04:30am 16.9 16.5 8.3 57 4.4 CALM 0 0 0 0 1014.3 1012.8 0.0
23/04:00am 17.8 17.4 8.4 54 4.9 CALM 0 0 0 0 1014.0 1012.5 0.0
23/03:30am 18.5 18.3 9.0 54 5.0 CALM 0 4 0 2 1013.9 1012.4 0.0
23/03:00am 19.1 17.6 8.4 50 5.6 N 6 6 3 3 1013.6 1012.1 0.0
23/02:30am 19.5 18.9 7.6 46 6.1 CALM 0 2 0 1 1013.9 1012.4 0.0
23/02:00am 20.3 18.5 7.3 43 6.7 ENE 6 7 3 4 1014.0 1012.5 0.0
23/01:30am 22.0 20.6 7.4 39 7.6 NE 4 6 2 3 1014.1 1012.6 0.0
23/01:00am 24.5 23.0 6.7 32 9.3 ENE 4 7 2 4 1014.3 1012.8 0.0
23/12:30am 26.5 24.5 7.0 29 10.4 NNE 7 13 4 7 1014.3 1012.8 0.0
23/12:00am 27.4 25.1 7.3 28 10.8 NNE 9 13 5 7 1014.5 1013.0 0.0
 
Date/Time
CST
Temp
°C
App
Temp
°C
Dew
Point
Rel
Hum
%
Delta-T
°C
Wind Press
QNH
hPa
Press
MSL
hPa
Rain
since 9 am
mm
Dir
 
Spd
km/h
Gust
km/h
Spd
kts
Gust
kts
22/11:30pm 28.1 25.6 8.4 29 10.8 NE 11 19 6 10 1014.6 1013.1 0.0
22/11:00pm 28.6 26.0 9.3 30 10.8 NNE 13 20 7 11 1014.6 1013.1 0.0
22/10:30pm 29.4 26.7 10.5 31 10.8 NNE 15 24 8 13 1014.5 1013.0 0.0
22/10:00pm 30.2 26.6 10.7 30 11.3 NE 20 32 11 17 1014.2 1012.7 0.0
22/09:30pm 30.6 27.6 10.5 29 11.6 NE 17 24 9 13 1013.9 1012.4 0.0
22/09:00pm 30.3 27.5 8.7 26 12.1 NE 13 20 7 11 1013.3 1011.9 0.0
22/08:57pm 30.1 27.4 9.1 27 11.8 NE 13 20 7 11 1013.3 1011.9 0.0
22/08:30pm 25.0 23.3 5.7 29 10.0 NNE 4 4 2 2 1012.8 1011.4 0.0
22/08:00pm 26.2 25.1 5.2 26 10.8 CALM 0 0 0 0 1012.4 1011.0 0.0
22/07:30pm 27.7 26.4 4.1 22 12.0 CALM 0 0 0 0 1012.2 1010.8 0.0
22/07:00pm 31.2 29.0 3.3 17 14.3 ENE 4 4 2 2 1011.8 1010.4 0.0
22/06:30pm 34.5 31.7 3.1 14 16.4 ENE 7 11 4 6 1011.5 1010.0 0.0
22/06:00pm 36.4 33.3 3.6 13 17.5 E 9 15 5 8 1011.1 1009.6 0.0
22/05:30pm 37.4 34.5 4.4 13 17.9 E 9 19 5 10 1010.9 1009.4 0.0
22/05:00pm 37.5 34.3 3.3 12 18.2 NE 9 20 5 11 1010.8 1009.3 0.0
22/04:30pm 38.0 35.9 3.7 12 18.5 E 4 11 2 6 1010.7 1009.2 0.0
22/04:00pm 38.4 34.2 4.0 12 18.6 ENE 15 22 8 12 1010.9 1009.4 0.0
22/03:30pm 38.1 34.7 3.8 12 18.5 E 11 20 6 11 1011.1 1009.6 0.0
22/03:00pm 38.2 35.0 5.0 13 18.2 NE 11 20 6 11 1011.4 1009.9 0.0
22/02:30pm 38.2 35.7 5.0 13 18.2 E 7 17 4 9 1011.7 1010.3 0.0
22/02:00pm 37.3 34.1 5.3 14 17.6 N 11 19 6 10 1012.1 1010.7 0.0
22/01:30pm 36.9 32.4 6.0 15 17.1 NNE 19 30 10 16 1012.7 1011.3 0.0
22/01:00pm 36.7 32.5 5.9 15 17.0 E 17 28 9 15 1013.4 1012.0 0.0
22/12:30pm 36.2 32.7 5.5 15 16.8 E 13 26 7 14 1014.1 1012.6 0.0
22/12:00pm 36.0 33.6 8.7 19 15.7 NNE 11 22 6 12 1014.8 1013.3 0.0
22/11:30am 34.6 32.5 9.8 22 14.4 NE 11 28 6 15 1015.2 1013.7 0.0
22/11:00am 34.1 32.3 10.7 24 13.7 NNE 11 26 6 14 1015.8 1014.4 0.0
22/10:30am 33.7 31.7 11.5 26 13.2 NE 13 22 7 12 1016.3 1014.9 0.0
22/10:00am 32.1 31.3 12.8 30 11.6 N 9 15 5 8 1016.6 1015.2 0.0
22/09:30am 30.7 30.2 13.9 36 10.2 NNE 9 19 5 10 1017.0 1015.6 0.0
22/09:00am 28.5 29.1 16.7 48 7.4 N 9 17 5 9 1017.2 1015.8 0.0
22/08:30am 27.3 28.3 18.6 59 5.6 N 11 15 6 8 1017.0 1015.6 0.0
22/08:00am 25.4 26.6 18.3 65 4.5 N 9 15 5 8 1016.8 1015.4 0.0
22/07:30am 24.1 25.6 16.6 63 4.6 NNE 4 9 2 5 1016.4 1015.0 0.0
22/07:00am 20.0 20.8 12.7 63 4.2 CALM 0 0 0 0 1016.1 1014.7 0.0
22/06:30am 16.9 16.9 9.8 63 3.8 CALM 0 4 0 2 1015.8 1014.4 0.0
22/06:00am 16.8 16.8 9.7 63 3.8 CALM 0 0 0 0 1015.5 1014.0 0.0
22/05:30am 16.8 16.6 9.0 60 4.1 CALM 0 0 0 0 1015.4 1013.9 0.0
22/05:00am 17.1 16.8 8.8 58 4.3 CALM 0 0 0 0 1015.0 1013.5 0.0
22/04:30am 17.2 16.9 8.6 57 4.5 CALM 0 0 0 0 1014.7 1013.2 0.0
22/04:00am 17.5 17.1 8.4 55 4.7 CALM 0 0 0 0 1014.5 1013.0 0.0
22/03:30am 17.8 16.5 7.8 52 5.1 NNE 4 4 2 2 1014.3 1012.8 0.0
22/03:00am 18.0 17.5 8.0 52 5.2 CALM 0 0 0 0 1014.2 1012.7 0.0
22/02:30am 18.4 17.8 7.5 49 5.6 CALM 0 0 0 0 1014.3 1012.8 0.0
22/02:00am 18.8 18.1 6.9 46 6.0 CALM 0 0 0 0 1014.5 1013.0 0.0
22/01:30am 19.6 19.0 7.4 45 6.3 CALM 0 0 0 0 1014.7 1013.2 0.0
22/01:00am 20.0 18.5 6.7 42 6.8 S 4 6 2 3 1015.0 1013.5 0.0
22/12:30am 20.4 18.9 6.7 41 7.0 SSE 4 7 2 4 1015.2 1013.7 0.0
22/12:00am 20.5 18.8 6.1 39 7.3 SE 4 6 2 3 1015.1 1013.6 0.0
 
Date/Time
CST
Temp
°C
App
Temp
°C
Dew
Point
Rel
Hum
%
Delta-T
°C
Wind Press
QNH
hPa
Press
MSL
hPa
Rain
since 9 am
mm
Dir
 
Spd
km/h
Gust
km/h
Spd
kts
Gust
kts
21/11:30pm 20.8 18.7 5.6 37 7.6 ENE 6 7 3 4 1015.1 1013.6 0.0
21/11:00pm 21.3 19.8 4.8 34 8.2 NE 2 6 1 3 1015.1 1013.6 0.0
21/10:30pm 21.7 20.5 4.7 33 8.4 CALM 0 4 0 2 1015.0 1013.5 0.0
21/10:00pm 21.9 19.9 4.5 32 8.6 E 4 6 2 3 1014.9 1013.4 0.0
21/09:30pm 22.1 20.8 4.2 31 8.8 CALM 0 0 0 0 1014.6 1013.1 0.0
21/09:00pm 22.7 21.4 4.2 30 9.1 CALM 0 0 0 0 1014.2 1012.7 0.0
21/08:30pm 23.7 22.2 3.1 26 10.0 CALM 0 0 0 0 1014.0 1012.5 0.0
21/08:00pm 25.4 23.6 3.4 24 10.9 ENE 2 4 1 2 1013.6 1012.1 0.0
21/07:30pm 27.2 24.8 2.3 20 12.3 E 4 7 2 4 1013.2 1011.8 0.0
21/07:00pm 30.3 27.7 0.8 15 14.4 ENE 4 6 2 3 1012.9 1011.5 0.0
21/06:30pm 34.3 30.9 2.0 13 16.6 ENE 9 13 5 7 1012.6 1011.2 0.0
21/06:00pm 36.0 31.9 2.1 12 17.6 E 13 20 7 11 1012.2 1010.8 0.0
21/05:30pm 36.9 34.0 2.8 12 18.0 E 7 15 4 8 1011.9 1010.5 0.0
21/05:00pm 37.6 32.9 3.4 12 18.3 NE 17 24 9 13 1011.6 1010.2 0.0
21/04:30pm 37.5 34.3 3.3 12 18.2 NNE 9 17 5 9 1011.5 1010.0 0.0
21/04:00pm 37.8 34.7 3.5 12 18.4 ESE 9 19 5 10 1011.6 1010.2 0.0
21/03:30pm 37.8 35.1 3.5 12 18.4 ENE 7 13 4 7 1011.7 1010.3 0.0
21/03:00pm 37.2 33.6 3.1 12 18.1 NE 11 22 6 12 1011.9 1010.5 0.0
21/02:30pm 37.5 33.2 3.3 12 18.2 E 15 28 8 15 1012.4 1011.0 0.0
21/02:00pm 37.3 34.3 4.3 13 17.8 E 9 22 5 12 1012.9 1011.5 0.0
21/01:30pm 36.7 34.4 4.9 14 17.3 N 6 15 3 8 1013.7 1012.2 0.0
21/01:00pm 37.3 32.6 5.3 14 17.6 E 19 32 10 17 1014.5 1013.0 0.0
21/12:30pm 36.6 33.9 5.8 15 17.0 E 9 20 5 11 1015.0 1013.5 0.0
21/12:00pm 36.5 33.8 7.5 17 16.4 ENE 11 19 6 10 1015.7 1014.2 0.0
21/11:30am 35.5 33.6 9.1 20 15.2 E 9 28 5 15 1016.3 1014.9 0.0
21/11:00am 34.3 31.2 8.8 21 14.6 NNE 15 30 8 16 1016.8 1015.4 0.0
21/10:30am 33.7 31.5 10.9 25 13.4 ENE 13 24 7 13 1017.2 1015.8 0.0
21/10:00am 32.1 30.9 12.8 30 11.6 NE 11 20 6 11 1017.4 1016.0 0.0
21/09:30am 30.8 30.1 14.4 36 10.0 NNE 11 17 6 9 1017.8 1016.4 0.0
21/09:00am 28.9 29.3 15.4 44 8.3 NNE 7 13 4 7 1017.8 1016.4 0.0
21/08:30am 27.3 28.9 17.8 56 6.0 NNE 6 11 3 6 1017.8 1016.4 0.0
21/08:00am 25.5 27.2 18.4 65 4.5 NNE 7 11 4 6 1017.6 1016.2 0.0
21/07:30am 24.1 26.4 18.5 71 3.6 NE 4 9 2 5 1017.3 1015.9 0.0
21/07:00am 21.1 23.3 16.5 75 2.8 CALM 0 4 0 2 1017.0 1015.6 0.0
21/06:30am 18.7 20.0 14.0 74 2.7 CALM 0 2 0 1 1016.7 1015.3 0.0
21/06:00am 17.9 18.0 13.8 77 2.4 SE 6 11 3 6 1016.7 1015.3 0.0
21/05:30am 18.0 18.7 12.2 69 3.2 CALM 0 4 0 2 1016.1 1014.7 0.0
21/05:00am 18.2 18.4 11.7 66 3.6 NNE 2 6 1 3 1015.8 1014.4 0.0
21/04:30am 18.6 18.4 11.9 65 3.7 NNE 4 7 2 4 1015.3 1013.8 0.0
21/04:00am 18.9 18.5 11.2 61 4.2 NE 4 6 2 3 1015.2 1013.7 0.0
21/03:30am 19.6 19.2 12.4 63 4.1 NE 6 9 3 5 1014.9 1013.4 0.0
21/03:00am 19.1 18.3 11.2 60 4.4 E 6 7 3 4 1015.0 1013.5 0.0
21/02:30am 19.1 18.6 10.6 58 4.6 NE 4 6 2 3 1014.8 1013.3 0.0
21/02:00am 19.7 19.9 10.7 56 4.9 CALM 0 0 0 0 1014.8 1013.3 0.0
21/01:30am 20.7 20.8 10.2 51 5.7 CALM 0 0 0 0 1014.8 1013.3 0.0
21/01:00am 22.3 22.6 10.8 48 6.4 CALM 0 2 0 1 1014.9 1013.4 0.0
21/12:30am 24.9 24.5 11.1 42 7.8 NNE 4 6 2 3 1015.2 1013.7 0.0
21/12:00am 25.7 25.1 11.8 42 8.0 NE 6 9 3 5 1015.4 1013.9 0.0
 
Date/Time
CST
Temp
°C
App
Temp
°C
Dew
Point
Rel
Hum
%
Delta-T
°C
Wind Press
QNH
hPa
Press
MSL
hPa
Rain
since 9 am
mm
Dir
 
Spd
km/h
Gust
km/h
Spd
kts
Gust
kts
20/11:30pm 25.3 25.3 11.1 41 8.1 SSW 2 9 1 5 1015.4 1013.9 0.0
20/11:00pm 27.3 26.3 10.9 36 9.4 NE 7 11 4 6 1015.0 1013.5 0.0
20/10:30pm 27.6 26.5 10.8 35 9.6 NNE 7 11 4 6 1014.7 1013.2 0.0
20/10:00pm 26.0 25.0 8.9 34 9.4 NNE 4 7 2 4 1014.5 1013.0 0.0
20/09:30pm 23.2 21.0 6.1 33 8.8 NE 7 11 4 6 1014.3 1012.8 0.0
20/09:00pm 23.2 21.2 4.2 29 9.4 ENE 4 4 2 2 1013.9 1012.4 0.0
20/08:30pm 24.0 21.5 3.9 27 10.0 NE 6 7 3 4 1013.4 1012.0 0.0
20/08:00pm 25.1 23.6 3.1 24 10.8 CALM 0 0 0 0 1013.0 1011.6 0.0
20/07:30pm 27.0 24.6 2.1 20 12.2 E 4 4 2 2 1012.5 1011.1 0.0
20/07:00pm 30.7 28.1 1.1 15 14.6 ENE 4 6 2 3 1012.1 1010.7 0.0
20/06:30pm 34.2 31.2 1.9 13 16.5 ENE 7 17 4 9 1011.7 1010.3 0.0
20/06:00pm 36.0 32.3 2.1 12 17.6 E 11 17 6 9 1011.3 1009.8 0.0
20/05:30pm 36.9 32.7 1.6 11 18.3 E 13 22 7 12 1011.1 1009.6 0.0
20/05:00pm 37.4 34.0 2.0 11 18.5 NNE 9 19 5 10 1010.8 1009.3 0.0
20/04:30pm 38.3 33.7 1.3 10 19.2 ESE 15 24 8 13 1010.9 1009.4 0.0
20/04:00pm 38.3 33.3 1.3 10 19.2 ESE 17 28 9 15 1011.0 1009.5 0.0
20/03:30pm 38.0 34.3 2.5 11 18.7 ENE 11 22 6 12 1011.2 1009.7 0.0
20/03:00pm 38.0 33.2 2.5 11 18.7 E 17 32 9 17 1011.6 1010.2 0.0
20/02:30pm 37.8 33.3 2.3 11 18.7 E 15 26 8 14 1011.9 1010.5 0.0
20/02:00pm 38.1 33.7 2.5 11 18.8 E 15 28 8 15 1012.4 1011.0 0.0
20/01:30pm 37.7 33.6 2.2 11 18.6 ESE 13 26 7 14 1012.9 1011.5 0.0

Other Formats:

Comma delimited format used in spreadsheet applications
http://www.bom.gov.au/fwo/IDD60801/IDD60801.94234.axf

JavaScript Object Notation format (JSON) in row-major order
http://www.bom.gov.au/fwo/IDD60801/IDD60801.94234.json